Time;durP1;ratioP1;P1;durP2;ratioP2;P2;SDS_P1;SDS_P2;PMS_P1;PMS_P2;Temp;Humidity;BMP_temperature;BMP_pressure;BME280_temperature;BME280_humidity;BME280_pressure;Samples;Min_cycle;Max_cycle;Signal;HPM_P1;HPM_P2
2023/09/11 00:02:00;;;;;;;11.13;10.30;;;;;;;20.23;71.33;97903.19;5000441;28;20456;-82
2023/09/11 00:04:26;;;;;;;11.30;10.40;;;;;;;20.19;71.54;97898.50;4999564;28;20576;-82
2023/09/11 00:06:53;;;;;;;11.40;10.37;;;;;;;20.07;71.89;97905.06;5007781;28;20603;-82
2023/09/11 00:09:20;;;;;;;12.33;11.30;;;;;;;19.98;72.63;97906.66;5005286;28;20490;-81
2023/09/11 00:11:46;;;;;;;10.77;9.87;;;;;;;20.07;72.24;97905.06;5000806;28;20488;-82
2023/09/11 00:14:12;;;;;;;10.77;9.97;;;;;;;19.98;72.89;97903.91;5001059;28;20487;-82
2023/09/11 00:16:41;;;;;;;11.30;10.37;;;;;;;19.91;73.42;97895.06;5005143;28;20202;-81
2023/09/11 00:19:12;;;;;;;11.40;10.50;;;;;;;19.96;72.84;97891.53;5007720;28;20445;-82
2023/09/11 00:21:39;;;;;;;11.73;10.83;;;;;;;20.01;73.17;97888.81;4995330;28;20948;-82
2023/09/11 00:24:06;;;;;;;10.93;9.93;;;;;;;19.90;73.24;97887.91;4998788;28;20478;-81
2023/09/11 00:26:33;;;;;;;11.77;10.77;;;;;;;19.93;73.40;97886.56;4997622;28;20553;-82
2023/09/11 00:28:59;;;;;;;12.00;11.00;;;;;;;19.80;73.57;97882.38;4998914;28;20521;-81
2023/09/11 00:31:26;;;;;;;11.27;10.33;;;;;;;19.91;73.40;97877.75;4994810;28;20494;-82
2023/09/11 00:33:53;;;;;;;12.63;11.70;;;;;;;19.83;73.52;97876.31;4992790;28;20537;-82
2023/09/11 00:36:22;;;;;;;12.37;11.37;;;;;;;19.59;74.25;97880.56;5008949;28;20711;-82
2023/09/11 00:38:50;;;;;;;11.90;11.00;;;;;;;19.70;74.20;97876.81;4994976;28;20463;-82
2023/09/11 00:41:17;;;;;;;11.80;10.80;;;;;;;19.53;74.80;97876.13;4994613;28;20568;-82
2023/09/11 00:43:43;;;;;;;13.07;11.80;;;;;;;19.02;75.81;97832.63;4997172;28;20528;-80
2023/09/11 00:46:11;;;;;;;13.13;12.13;;;;;;;19.23;76.33;97877.50;5002719;28;20988;-82
2023/09/11 00:48:37;;;;;;;12.40;11.50;;;;;;;19.01;77.34;97880.34;5000575;28;20548;-81
2023/09/11 00:51:04;;;;;;;12.80;11.73;;;;;;;18.87;78.08;97872.78;4999878;28;20878;-81
2023/09/11 00:53:33;;;;;;;12.83;11.60;;;;;;;18.83;78.95;97871.69;4994143;28;20462;-82
2023/09/11 00:55:59;;;;;;;11.60;10.70;;;;;;;18.72;79.14;97863.34;4998121;28;20545;-82
2023/09/11 00:58:27;;;;;;;12.53;11.63;;;;;;;18.71;79.34;97864.44;4997655;28;20508;-81
2023/09/11 01:00:54;;;;;;;12.10;11.10;;;;;;;18.81;79.11;97858.22;4997120;28;20578;-82
2023/09/11 01:03:21;;;;;;;12.83;11.80;;;;;;;18.81;78.92;97854.66;4999945;28;20485;-81
2023/09/11 01:05:49;;;;;;;13.03;11.87;;;;;;;18.69;79.30;97855.63;4998229;28;20769;-81
2023/09/11 01:08:16;;;;;;;13.33;12.03;;;;;;;18.67;79.55;97857.81;4997860;28;20540;-82
2023/09/11 01:10:44;;;;;;;13.17;12.17;;;;;;;18.67;79.94;97857.81;5000171;28;20511;-81
2023/09/11 01:13:11;;;;;;;13.90;12.77;;;;;;;18.69;79.77;97855.63;4997153;28;20528;-81
2023/09/11 01:15:44;;;;;;;13.67;12.57;;;;;;;18.64;79.90;97844.63;5005817;28;20508;-81
2023/09/11 01:18:14;;;;;;;12.07;11.10;;;;;;;18.69;80.12;97850.16;5006642;28;20870;-81
2023/09/11 01:20:57;;;;;;;12.97;11.87;;;;;;;18.69;80.08;97850.16;5003911;28;20523;-82
2023/09/11 01:24:05;;;;;;;13.80;12.60;;;;;;;18.54;80.77;97855.44;5001165;28;20456;-81
2023/09/11 01:26:57;;;;;;;13.40;12.30;;;;;;;18.44;81.47;97847.94;4934598;28;20462;-81
2023/09/11 01:29:26;;;;;;;13.30;12.30;;;;;;;18.34;82.15;97847.00;5005060;28;20478;-81
2023/09/11 01:31:54;;;;;;;13.10;12.13;;;;;;;18.27;82.35;97849.94;5002175;28;20464;-82
2023/09/11 01:34:22;;;;;;;13.93;12.90;;;;;;;18.17;82.93;97840.78;5006569;28;20482;-81
2023/09/11 01:36:49;;;;;;;14.77;13.50;;;;;;;18.06;83.68;97840.66;4992933;28;21029;-82
2023/09/11 01:39:16;;;;;;;14.83;13.53;;;;;;;18.20;83.13;97829.28;5004010;28;20467;-81
2023/09/11 01:41:46;;;;;;;14.40;13.10;;;;;;;18.22;83.08;97838.06;5005870;28;20512;-82
2023/09/11 01:44:16;;;;;;;15.07;13.77;;;;;;;18.27;83.10;97832.66;4998206;28;20477;-82
2023/09/11 01:46:46;;;;;;;15.33;14.13;;;;;;;18.26;83.23;97836.47;5008131;28;20489;-81
2023/09/11 01:49:14;;;;;;;16.10;14.80;;;;;;;18.24;83.36;97847.69;5001291;28;20536;-81
2023/09/11 01:51:41;;;;;;;16.43;15.23;;;;;;;18.23;83.58;97839.72;5005047;28;20472;-81
2023/09/11 01:54:09;;;;;;;15.20;14.10;;;;;;;18.16;83.84;97830.91;5002451;28;20624;-82
2023/09/11 01:56:36;;;;;;;14.70;13.50;;;;;;;18.21;83.96;97825.47;4999169;28;20461;-82
2023/09/11 01:59:03;;;;;;;16.00;14.40;;;;;;;18.19;83.86;97833.13;5002134;28;20529;-82
2023/09/11 02:01:30;;;;;;;15.67;14.47;;;;;;;18.19;83.91;97835.88;5006574;28;20496;-81
2023/09/11 02:03:58;;;;;;;15.50;14.20;;;;;;;18.18;83.86;97834.22;5003547;28;20515;-81
2023/09/11 02:06:24;;;;;;;15.90;14.50;;;;;;;18.10;84.29;97828.09;5000744;28;20449;-82
2023/09/11 02:08:51;;;;;;;15.27;14.07;;;;;;;18.06;84.59;97829.69;5005778;28;20449;-82
2023/09/11 02:11:18;;;;;;;15.30;14.10;;;;;;;18.02;84.90;97828.53;4995736;28;20456;-81
2023/09/11 02:13:45;;;;;;;16.17;14.90;;;;;;;18.00;85.31;97836.19;5002987;28;20472;-81
2023/09/11 02:16:13;;;;;;;16.10;14.90;;;;;;;18.12;84.68;97831.41;5008544;28;20505;-82
2023/09/11 02:18:40;;;;;;;16.10;14.90;;;;;;;17.98;85.38;97824.66;5000015;28;20457;-82
2023/09/11 02:21:08;;;;;;;16.67;15.23;;;;;;;18.03;85.22;97834.84;4999476;28;20486;-82
2023/09/11 02:23:35;;;;;;;15.77;14.30;;;;;;;18.02;85.37;97839.50;4996970;28;20875;-81
2023/09/11 02:26:02;;;;;;;17.80;16.50;;;;;;;17.92;86.04;97844.84;5001253;28;21042;-82
2023/09/11 02:28:29;;;;;;;17.07;15.67;;;;;;;17.96;85.97;97840.50;4992203;28;20489;-81
2023/09/11 02:30:57;;;;;;;16.30;14.90;;;;;;;18.12;85.15;97844.28;4997125;28;20595;-82
2023/09/11 02:33:24;;;;;;;17.10;15.70;;;;;;;18.16;84.89;97844.59;5004346;28;20984;-82
2023/09/11 02:35:53;;;;;;;16.90;15.57;;;;;;;18.11;85.10;97840.72;5002447;28;20489;-81
2023/09/11 02:38:21;;;;;;;18.30;16.77;;;;;;;18.30;84.58;97840.38;5004455;28;20523;-82
2023/09/11 02:40:48;;;;;;;17.20;15.97;;;;;;;18.28;84.50;97842.53;5003678;28;20550;-82
2023/09/11 02:43:15;;;;;;;16.57;15.23;;;;;;;18.37;84.01;97843.75;5001407;28;20453;-81
2023/09/11 02:45:42;;;;;;;15.07;13.73;;;;;;;18.35;84.09;97843.16;5000535;28;20504;-82
2023/09/11 02:48:09;;;;;;;16.77;15.37;;;;;;;18.31;84.10;97842.03;4991666;28;20572;-82
2023/09/11 02:50:35;;;;;;;15.20;14.00;;;;;;;18.36;83.84;97840.16;4999541;28;20480;-81
2023/09/11 02:53:03;;;;;;;16.87;15.43;;;;;;;18.31;84.22;97850.25;5004005;28;20547;-83
2023/09/11 02:55:31;;;;;;;17.10;15.70;;;;;;;18.41;83.35;97837.50;5005435;28;20659;-82
2023/09/11 02:57:57;;;;;;;16.00;14.80;;;;;;;18.24;84.25;97838.66;5000531;28;20536;-82
2023/09/11 03:00:24;;;;;;;15.00;13.90;;;;;;;18.13;84.90;97845.94;5004185;28;21568;-81
2023/09/11 03:02:51;;;;;;;18.37;16.87;;;;;;;18.37;83.65;97846.47;5003592;28;20464;-82
2023/09/11 03:05:18;;;;;;;16.40;15.20;;;;;;;18.32;83.78;97844.50;4997387;28;20485;-82
2023/09/11 03:07:44;;;;;;;14.90;13.80;;;;;;;18.39;83.13;97841.56;4998772;28;20945;-82
2023/09/11 03:10:11;;;;;;;15.03;13.93;;;;;;;18.40;83.08;97843.22;5002461;28;21104;-82
2023/09/11 03:12:39;;;;;;;15.47;14.17;;;;;;;18.54;82.60;97841.72;5004858;28;20562;-81
2023/09/11 03:15:07;;;;;;;15.50;14.30;;;;;;;18.54;82.90;97840.91;5000609;28;20480;-82
2023/09/11 03:17:34;;;;;;;16.63;15.43;;;;;;;18.51;83.32;97839.53;4997143;28;20459;-82
2023/09/11 03:20:00;;;;;;;16.50;15.07;;;;;;;18.52;83.22;97837.63;5005998;28;21265;-82
2023/09/11 03:22:29;;;;;;;16.30;15.20;;;;;;;18.55;83.14;97837.91;5004704;28;20567;-82
2023/09/11 03:24:56;;;;;;;16.93;15.73;;;;;;;18.56;83.40;97839.56;5004352;28;20488;-81
2023/09/11 03:27:22;;;;;;;18.80;17.30;;;;;;;18.35;84.51;97834.94;4993903;28;20457;-83
2023/09/11 03:29:52;;;;;;;18.30;17.00;;;;;;;18.32;84.45;97832.72;4995303;28;20543;-82
2023/09/11 03:32:19;;;;;;;17.13;15.93;;;;;;;18.27;84.85;97836.22;5003066;28;20468;-82
2023/09/11 03:34:45;;;;;;;19.07;17.57;;;;;;;18.25;85.17;97829.34;5009910;28;20473;-82
2023/09/11 03:37:12;;;;;;;17.80;16.40;;;;;;;18.21;85.64;97837.25;5005962;28;20536;-82
2023/09/11 03:39:39;;;;;;;18.97;17.47;;;;;;;18.15;86.05;97837.47;4993180;28;20548;-82
2023/09/11 03:42:06;;;;;;;19.07;17.67;;;;;;;18.07;86.18;97825.03;5001535;28;20509;-81
2023/09/11 03:44:33;;;;;;;18.27;16.87;;;;;;;18.25;85.46;97832.91;4999235;28;20850;-82
2023/09/11 03:47:01;;;;;;;18.33;16.97;;;;;;;18.28;85.22;97837.06;5001140;28;20971;-82
2023/09/11 03:49:27;;;;;;;17.60;16.20;;;;;;;18.26;85.08;97834.56;5000731;28;20810;-81
2023/09/11 03:51:54;;;;;;;19.30;17.77;;;;;;;18.23;85.28;97835.06;5000261;28;20545;-82
2023/09/11 03:54:21;;;;;;;18.67;16.93;;;;;;;18.11;85.88;97837.97;4999553;28;20842;-77
2023/09/11 03:56:47;;;;;;;19.37;17.70;;;;;;;18.09;86.03;97840.13;5006179;28;21459;-75
2023/09/11 03:59:14;;;;;;;19.70;18.10;;;;;;;17.91;86.83;97842.34;4997064;28;20462;-77
2023/09/11 04:01:41;;;;;;;16.80;15.60;;;;;;;18.02;86.54;97838.66;4990908;28;21043;-77
2023/09/11 04:04:09;;;;;;;19.67;18.10;;;;;;;17.95;86.73;97840.75;4995011;28;20481;-75
2023/09/11 04:06:36;;;;;;;21.20;19.10;;;;;;;17.90;86.72;97836.03;4997085;28;20480;-75
2023/09/11 04:09:05;;;;;;;20.13;18.53;;;;;;;17.83;87.32;97835.44;4993520;28;21963;-76
2023/09/11 04:11:32;;;;;;;20.50;19.10;;;;;;;17.69;87.95;97829.47;4993595;28;20462;-76
2023/09/11 04:13:59;;;;;;;20.47;18.57;;;;;;;17.62;88.13;97826.06;4989952;28;20477;-77
2023/09/11 04:16:25;;;;;;;21.80;19.80;;;;;;;17.52;88.72;97830.59;4994037;28;20511;-77
2023/09/11 04:18:52;;;;;;;18.27;16.77;;;;;;;17.54;88.73;97822.94;4997590;28;20489;-75
2023/09/11 04:21:20;;;;;;;21.73;19.93;;;;;;;17.47;89.05;97825.84;4993759;28;20920;-75
2023/09/11 04:23:47;;;;;;;22.27;20.37;;;;;;;17.42;89.32;97828.50;4990370;28;20560;-74
2023/09/11 04:26:14;;;;;;;22.50;20.50;;;;;;;17.25;90.18;97822.22;4996343;28;20457;-75
2023/09/11 04:28:41;;;;;;;21.50;19.87;;;;;;;17.22;90.23;97823.53;4995144;28;20461;-77
2023/09/11 04:31:07;;;;;;;21.70;19.90;;;;;;;17.28;89.94;97827.19;4992720;28;20510;-77
2023/09/11 04:33:36;;;;;;;20.20;18.50;;;;;;;17.26;89.74;97826.63;4995483;28;20953;-76
2023/09/11 04:36:03;;;;;;;20.10;18.50;;;;;;;17.30;89.40;97830.50;4987635;28;20492;-76
2023/09/11 04:38:31;;;;;;;19.53;18.03;;;;;;;17.25;89.48;97831.25;4994791;28;20464;-76
2023/09/11 04:40:58;;;;;;;21.97;20.00;;;;;;;17.29;89.38;97829.69;4994601;28;20861;-75
2023/09/11 04:43:25;;;;;;;20.50;18.80;;;;;;;17.26;89.50;97830.19;4999674;28;20446;-76
2023/09/11 04:45:52;;;;;;;20.07;18.27;;;;;;;17.26;89.48;97830.19;4989031;28;21021;-76
2023/09/11 04:48:19;;;;;;;20.60;18.83;;;;;;;17.29;89.22;97826.13;5000282;28;20453;-76
2023/09/11 04:50:46;;;;;;;20.60;19.10;;;;;;;17.31;89.10;97824.78;4993536;28;20567;-76
2023/09/11 04:53:13;;;;;;;19.30;17.80;;;;;;;17.36;88.95;97824.88;4992370;28;20449;-76
2023/09/11 04:55:41;;;;;;;19.73;18.20;;;;;;;17.24;89.51;97824.13;4988996;28;20480;-80
2023/09/11 04:58:08;;;;;;;20.60;18.90;;;;;;;17.20;89.56;97831.19;4983223;28;20468;-74
2023/09/11 05:00:34;;;;;;;21.23;19.30;;;;;;;17.16;89.85;97829.22;4990526;28;21022;-77
2023/09/11 05:03:01;;;;;;;20.60;18.80;;;;;;;17.18;89.81;97833.34;4991361;28;20485;-79
2023/09/11 05:05:28;;;;;;;20.63;19.03;;;;;;;17.17;90.05;97831.69;4989776;28;20944;-78
2023/09/11 05:07:55;;;;;;;20.63;19.00;;;;;;;17.12;89.95;97824.22;4984397;28;20457;-79
2023/09/11 05:10:22;;;;;;;20.40;18.80;;;;;;;17.13;90.10;97830.53;5000421;28;20935;-78
2023/09/11 05:12:50;;;;;;;21.90;20.00;;;;;;;17.17;90.13;97839.06;5007429;28;21303;-78
2023/09/11 05:15:17;;;;;;;23.20;21.37;;;;;;;17.08;90.33;97844.13;5002595;28;20876;-78
2023/09/11 05:17:44;;;;;;;20.67;18.80;;;;;;;17.17;90.13;97831.69;4990810;28;20533;-78
2023/09/11 05:20:12;;;;;;;22.20;20.40;;;;;;;17.13;90.36;97836.84;4993674;28;20453;-78
2023/09/11 05:22:39;;;;;;;20.03;18.33;;;;;;;17.24;89.97;97846.00;4999407;28;20481;-78
2023/09/11 05:25:07;;;;;;;20.87;19.27;;;;;;;17.22;89.89;97837.22;4995954;28;20854;-79
2023/09/11 05:27:34;;;;;;;22.10;20.10;;;;;;;17.31;89.64;97843.09;5000976;28;20544;-78
2023/09/11 05:30:02;;;;;;;21.27;19.57;;;;;;;17.32;89.54;97840.13;4999103;28;20558;-79
2023/09/11 05:32:28;;;;;;;21.97;20.00;;;;;;;17.25;90.05;97839.47;4999057;28;20462;-78
2023/09/11 05:34:55;;;;;;;20.10;18.50;;;;;;;17.28;89.70;97835.41;5004143;28;20548;-79
2023/09/11 05:37:22;;;;;;;20.40;18.67;;;;;;;17.22;89.86;97837.22;4997219;28;20473;-78
2023/09/11 05:39:49;;;;;;;20.20;18.53;;;;;;;17.24;89.88;97837.81;5007321;28;20476;-80
2023/09/11 05:42:16;;;;;;;20.83;19.03;;;;;;;17.39;89.42;97845.44;4994863;28;21371;-78
2023/09/11 05:44:43;;;;;;;19.67;18.17;;;;;;;17.52;88.63;97847.00;4997682;28;21119;-80
2023/09/11 05:47:11;;;;;;;19.67;18.27;;;;;;;17.62;88.08;97855.34;4994925;28;20996;-79
2023/09/11 05:49:38;;;;;;;19.37;17.83;;;;;;;17.59;88.08;97855.84;4998248;28;20500;-78
2023/09/11 05:52:06;;;;;;;20.07;18.47;;;;;;;17.83;87.39;97860.06;4989524;28;20552;-78
2023/09/11 05:54:33;;;;;;;19.37;17.80;;;;;;;17.88;86.73;97854.63;4989808;28;20474;-79
2023/09/11 05:57:02;;;;;;;20.00;18.33;;;;;;;17.90;86.65;97852.47;4991496;28;20462;-79
2023/09/11 05:59:29;;;;;;;19.80;18.20;;;;;;;18.09;85.94;97864.78;5001992;28;21027;-82
2023/09/11 06:01:55;;;;;;;20.07;18.07;;;;;;;18.46;84.52;97856.75;5003431;28;20475;-71
2023/09/11 06:04:24;;;;;;;17.70;16.30;;;;;;;18.78;82.62;97858.75;4993318;28;20559;-71
2023/09/11 06:06:51;;;;;;;20.20;18.33;;;;;;;19.09;81.05;97863.41;4988531;28;20460;-71
2023/09/11 06:09:18;;;;;;;18.20;16.73;;;;;;;19.66;78.97;97853.72;4999251;28;20467;-72
2023/09/11 06:11:45;;;;;;;18.90;17.33;;;;;;;20.01;77.35;97853.09;4989779;28;20823;-71
2023/09/11 06:14:11;;;;;;;19.60;17.80;;;;;;;20.02;76.58;97852.00;5003771;28;20484;-71
2023/09/11 06:16:38;;;;;;;18.13;16.53;;;;;;;19.95;76.35;97860.47;4985019;28;20501;-79
2023/09/11 06:19:05;;;;;;;18.63;17.13;;;;;;;19.85;77.23;97863.16;4989877;28;20457;-79
2023/09/11 06:21:33;;;;;;;19.20;17.67;;;;;;;20.28;75.85;97855.66;4988887;28;20442;-79
2023/09/11 06:24:00;;;;;;;17.60;16.20;;;;;;;19.97;76.03;97855.53;4989366;28;20496;-79
2023/09/11 06:26:28;;;;;;;18.93;16.97;;;;;;;20.11;75.84;97867.72;4993562;28;20465;-79
2023/09/11 06:28:55;;;;;;;18.27;16.70;;;;;;;20.36;74.94;97868.91;4989441;28;20581;-79
2023/09/11 06:31:22;;;;;;;17.10;15.70;;;;;;;20.74;73.22;97870.44;4987474;28;20458;-78
2023/09/11 06:33:49;;;;;;;17.63;16.07;;;;;;;20.98;72.05;97873.50;4990546;28;20479;-79
2023/09/11 06:36:17;;;;;;;16.60;15.40;;;;;;;21.40;70.20;97856.75;4997768;28;20469;-80
2023/09/11 06:38:45;;;;;;;17.00;15.50;;;;;;;21.88;68.63;97869.06;4994029;28;20823;-79
2023/09/11 06:41:12;;;;;;;14.93;13.70;;;;;;;21.94;67.74;97870.69;4996126;28;20463;-79
2023/09/11 06:43:38;;;;;;;14.50;13.40;;;;;;;22.31;65.92;97873.09;4995096;28;20989;-80
2023/09/11 06:46:05;;;;;;;15.80;14.40;;;;;;;22.55;64.91;97877.94;4997680;28;20965;-79
2023/09/11 06:48:32;;;;;;;17.30;15.90;;;;;;;22.61;64.70;97868.53;4999750;28;20468;-84
2023/09/11 06:50:59;;;;;;;14.40;13.03;;;;;;;23.05;62.83;97874.09;4998836;28;20453;-84
2023/09/11 06:53:25;;;;;;;14.37;13.07;;;;;;;23.12;62.27;97874.59;5002925;28;20931;-84
2023/09/11 06:55:55;;;;;;;14.43;13.20;;;;;;;23.24;62.07;97858.47;4998015;28;20492;-84
2023/09/11 06:58:22;;;;;;;14.20;12.97;;;;;;;23.60;60.56;97855.44;4999860;28;20453;-84
2023/09/11 07:00:48;;;;;;;14.40;13.13;;;;;;;23.81;60.38;97859.66;4998611;28;20453;-80
2023/09/11 07:03:16;;;;;;;15.00;13.70;;;;;;;24.20;59.20;97858.66;4995320;28;20488;-79
2023/09/11 07:05:43;;;;;;;14.33;13.10;;;;;;;24.27;59.25;97857.22;4991275;28;20457;-79
2023/09/11 07:08:10;;;;;;;14.50;13.10;;;;;;;24.60;57.59;97862.91;4994323;28;20541;-79
2023/09/11 07:10:37;;;;;;;13.70;12.60;;;;;;;24.90;57.20;97864.41;4992888;28;20490;-80
2023/09/11 07:13:05;;;;;;;13.83;12.40;;;;;;;25.08;56.07;97852.53;4991558;28;20483;-79
2023/09/11 07:15:32;;;;;;;13.60;12.33;;;;;;;25.57;54.91;97865.03;4994717;28;20460;-80
2023/09/11 07:17:58;;;;;;;15.30;13.90;;;;;;;25.65;54.27;97864.38;4992914;28;20954;-80
2023/09/11 07:20:25;;;;;;;13.70;12.50;;;;;;;25.99;53.01;97864.84;4993241;28;20468;-79
2023/09/11 07:22:52;;;;;;;14.67;13.53;;;;;;;26.44;51.90;97863.13;4990850;28;20494;-79
2023/09/11 07:25:22;;;;;;;13.90;12.73;;;;;;;26.56;51.30;97865.41;4999302;28;20556;-80
2023/09/11 07:27:49;;;;;;;12.40;11.30;;;;;;;26.55;51.01;97857.38;4998197;28;20461;-80
2023/09/11 07:30:17;;;;;;;12.43;11.43;;;;;;;26.83;49.85;97863.69;4998011;28;20482;-79
2023/09/11 07:32:44;;;;;;;13.03;11.83;;;;;;;26.96;49.23;97868.44;4999621;28;20461;-80
2023/09/11 07:35:11;;;;;;;13.47;12.30;;;;;;;27.28;48.18;97871.00;4992584;28;20446;-80
2023/09/11 07:37:38;;;;;;;12.10;10.97;;;;;;;27.51;48.27;97862.66;4993891;28;20509;-80
2023/09/11 07:40:07;;;;;;;13.47;12.10;;;;;;;27.35;48.53;97857.47;4993297;28;20886;-80
2023/09/11 07:42:34;;;;;;;11.60;10.60;;;;;;;27.02;48.90;97868.00;4992463;28;20464;-80
2023/09/11 07:45:01;;;;;;;13.17;12.17;;;;;;;27.32;47.80;97866.44;4992173;28;20512;-80
2023/09/11 07:47:29;;;;;;;14.23;12.80;;;;;;;27.25;48.26;97871.63;4996127;28;20542;-80
2023/09/11 07:49:56;;;;;;;12.30;11.30;;;;;;;27.53;48.18;97869.56;4999745;28;20490;-80
2023/09/11 07:52:23;;;;;;;12.50;11.30;;;;;;;27.63;47.59;97866.53;5005101;28;21025;-81
2023/09/11 07:54:50;;;;;;;12.57;11.33;;;;;;;28.09;46.88;97865.31;4993221;28;20614;-79
2023/09/11 07:57:17;;;;;;;11.13;10.23;;;;;;;28.42;45.84;97858.28;4988449;28;20445;-80
2023/09/11 07:59:44;;;;;;;11.13;10.13;;;;;;;28.65;44.44;97858.97;5000924;28;20480;-81
2023/09/11 08:02:11;;;;;;;12.23;11.23;;;;;;;28.77;43.97;97836.88;4995431;28;20471;-80
2023/09/11 08:04:39;;;;;;;10.70;9.77;;;;;;;29.49;42.49;97865.34;4994760;28;21044;-80
2023/09/11 08:07:06;;;;;;;10.13;9.27;;;;;;;29.90;41.42;97868.34;4991275;28;20818;-81
2023/09/11 08:09:33;;;;;;;10.60;9.80;;;;;;;30.24;39.99;97864.66;4996878;28;20465;-80
2023/09/11 08:12:00;;;;;;;11.57;10.57;;;;;;;30.31;39.63;97869.72;4991192;28;20857;-80
2023/09/11 08:14:26;;;;;;;10.20;9.40;;;;;;;30.60;39.51;97869.78;4998377;28;20477;-79
2023/09/11 08:16:53;;;;;;;10.37;9.47;;;;;;;30.92;38.28;97864.66;4989121;28;20838;-80
2023/09/11 08:19:20;;;;;;;26.17;11.87;;;;;;;31.22;37.95;97869.06;4990485;28;20615;-80
2023/09/11 08:21:48;;;;;;;10.70;9.80;;;;;;;31.55;36.93;97865.47;4994850;28;20547;-79
2023/09/11 08:24:15;;;;;;;11.10;10.20;;;;;;;31.64;36.48;97864.25;4995993;28;20587;-80
2023/09/11 08:26:42;;;;;;;11.37;10.57;;;;;;;31.79;36.50;97868.41;5006272;28;20454;-81
2023/09/11 08:29:10;;;;;;;10.00;9.20;;;;;;;32.27;35.48;97866.91;4998531;28;20464;-80
2023/09/11 08:31:38;;;;;;;10.40;9.60;;;;;;;32.38;35.94;97882.09;5001477;28;20462;-80
2023/09/11 08:34:05;;;;;;;11.53;10.43;;;;;;;32.88;34.89;97876.16;5001649;28;20488;-80
2023/09/11 08:36:32;;;;;;;10.90;10.07;;;;;;;33.16;33.95;97875.41;4990886;28;21489;-81
2023/09/11 08:39:00;;;;;;;13.17;10.30;;;;;;;33.24;33.92;97877.25;4997051;28;20791;-81
2023/09/11 08:41:28;;;;;;;10.57;8.83;;;;;;;33.53;33.27;97878.94;4988967;28;20489;-81
2023/09/11 08:43:55;;;;;;;13.63;9.70;;;;;;;33.68;32.71;97886.63;4993395;28;20497;-81
2023/09/11 08:46:22;;;;;;;11.30;10.03;;;;;;;34.16;31.73;97879.94;4990196;28;20463;-81
2023/09/11 08:48:54;;;;;;;9.30;8.37;;;;;;;34.60;30.88;97877.09;4996900;28;20476;-81
2023/09/11 08:51:23;;;;;;;11.93;8.63;;;;;;;34.68;30.72;97870.47;4996139;28;20454;-81
2023/09/11 08:53:52;;;;;;;10.30;9.30;;;;;;;34.80;30.53;97867.56;4993241;28;20477;-81
2023/09/11 08:56:20;;;;;;;9.97;9.13;;;;;;;34.58;30.13;97871.00;4996571;28;20465;-79
2023/09/11 08:58:48;;;;;;;9.17;8.00;;;;;;;34.63;31.14;97865.94;5004128;28;20476;-78
2023/09/11 09:01:16;;;;;;;9.50;8.60;;;;;;;34.76;30.64;97868.63;4998265;28;20509;-79
2023/09/11 09:03:42;;;;;;;9.80;8.50;;;;;;;35.71;29.24;97869.19;4997465;28;20492;-80
2023/09/11 09:06:09;;;;;;;10.13;9.07;;;;;;;34.77;29.21;97867.44;4991416;28;21157;-81
2023/09/11 09:08:36;;;;;;;8.73;8.07;;;;;;;34.53;29.43;97872.09;4995656;28;20502;-80
2023/09/11 09:11:03;;;;;;;9.00;8.20;;;;;;;34.25;31.05;97860.91;4994517;28;20458;-81
2023/09/11 09:13:35;;;;;;;9.70;8.80;;;;;;;34.32;31.32;97857.50;4995286;28;20489;-80
2023/09/11 09:16:02;;;;;;;9.70;8.70;;;;;;;34.68;30.76;97862.03;4992746;28;20460;-80
2023/09/11 09:18:29;;;;;;;9.77;8.97;;;;;;;34.45;31.22;97856.22;5002138;28;20456;-80
2023/09/11 09:20:56;;;;;;;9.30;8.57;;;;;;;34.58;31.22;97852.13;5002770;28;20516;-80
2023/09/11 09:23:31;;;;;;;9.73;8.30;;;;;;;33.88;32.09;97851.91;4995970;28;21093;-80
2023/09/11 09:26:04;;;;;;;9.50;8.70;;;;;;;33.85;32.10;97851.81;5004946;28;20940;-80
2023/09/11 09:28:32;;;;;;;9.30;8.47;;;;;;;34.15;31.82;97853.00;5003857;28;20853;-80
2023/09/11 09:31:00;;;;;;;9.77;8.97;;;;;;;34.72;31.29;97842.41;5001174;28;20453;-80
2023/09/11 09:33:27;;;;;;;9.70;8.77;;;;;;;34.49;31.09;97843.06;4995490;28;20579;-80
2023/09/11 09:35:55;;;;;;;10.27;9.57;;;;;;;34.80;30.41;97852.66;4994459;28;20469;-81
2023/09/11 09:38:22;;;;;;;8.90;8.30;;;;;;;35.03;31.14;97848.81;5006335;28;20515;-80
2023/09/11 09:40:50;;;;;;;10.60;9.80;;;;;;;34.68;31.08;97842.34;4997020;28;20461;-81
2023/09/11 09:43:18;;;;;;;11.40;10.40;;;;;;;34.75;30.29;97841.69;4990636;28;20498;-80
2023/09/11 09:45:45;;;;;;;8.70;7.90;;;;;;;35.15;28.92;97845.03;4990188;28;20461;-80
2023/09/11 09:48:15;;;;;;;8.67;7.97;;;;;;;35.16;29.29;97841.03;4992938;28;20478;-80
2023/09/11 09:51:03;;;;;;;8.77;8.07;;;;;;;35.50;28.42;97844.19;5008372;28;20510;-81
2023/09/11 09:53:32;;;;;;;9.80;9.10;;;;;;;35.67;28.82;97841.75;4998709;28;20488;-80
2023/09/11 09:56:03;;;;;;;8.73;8.00;;;;;;;35.84;27.43;97845.31;4999414;28;21228;-81
2023/09/11 09:58:31;;;;;;;7.57;6.90;;;;;;;36.35;26.43;97848.69;4997373;28;20496;-80
2023/09/11 10:00:59;;;;;;;9.43;6.87;;;;;;;36.11;26.56;97840.56;4991195;28;20469;-78
2023/09/11 10:03:28;;;;;;;7.30;6.60;;;;;;;36.76;26.01;97837.69;4995987;28;20488;-80
2023/09/11 10:05:55;;;;;;;7.10;6.50;;;;;;;36.90;25.67;97827.44;4992742;28;21025;-78
2023/09/11 10:08:22;;;;;;;8.60;7.27;;;;;;;36.35;25.58;97826.16;5000851;28;20445;-74
2023/09/11 10:10:49;;;;;;;10.90;6.33;;;;;;;37.20;25.62;97819.00;4993014;28;20454;-72
2023/09/11 10:13:16;;;;;;;40.13;8.60;;;;;;;37.00;25.21;97823.97;4991642;28;20814;-80
2023/09/11 10:15:44;;;;;;;6.60;6.10;;;;;;;37.03;24.31;97824.41;4990171;28;20470;-79
2023/09/11 10:18:12;;;;;;;7.40;6.87;;;;;;;37.34;24.38;97812.75;4993331;28;21124;-74
2023/09/11 10:20:41;;;;;;;8.27;7.47;;;;;;;37.03;25.47;97808.28;4991272;28;20460;-78
2023/09/11 10:23:09;;;;;;;7.40;6.77;;;;;;;37.50;25.45;97806.88;4993959;28;20513;-75
2023/09/11 10:25:39;;;;;;;7.30;6.70;;;;;;;38.01;24.51;97804.22;4996527;28;20465;-75
2023/09/11 10:28:07;;;;;;;6.70;6.30;;;;;;;37.55;24.82;97804.50;4992594;28;20464;-70
2023/09/11 10:30:40;;;;;;;17.10;15.90;;;;;;;37.55;25.21;97795.22;4988919;28;20454;-73
2023/09/11 10:33:10;;;;;;;7.63;6.97;;;;;;;37.86;24.26;97800.44;4991945;28;20486;-75
2023/09/11 10:35:41;;;;;;;9.43;8.63;;;;;;;37.55;24.59;97798.88;4995636;28;20454;-74
2023/09/11 10:38:09;;;;;;;7.47;6.80;;;;;;;37.85;24.04;97807.28;4993801;28;20500;-74
2023/09/11 10:40:37;;;;;;;9.33;8.37;;;;;;;37.58;24.35;97802.94;4992430;28;20456;-74
2023/09/11 10:43:04;;;;;;;7.70;7.03;;;;;;;36.99;25.37;97796.13;4992329;28;20500;-74
2023/09/11 10:45:33;;;;;;;11.30;10.40;;;;;;;38.01;24.68;97792.94;4989017;28;20461;-73
2023/09/11 10:47:59;;;;;;;7.57;6.80;;;;;;;37.99;23.60;97784.84;4985372;28;20458;-73
2023/09/11 10:50:30;;;;;;;7.77;7.17;;;;;;;37.73;24.38;97793.44;4984464;28;20465;-74
2023/09/11 10:52:58;;;;;;;7.20;6.60;;;;;;;37.93;23.60;97786.38;4987785;28;20572;-73
2023/09/11 10:55:25;;;;;;;9.07;8.37;;;;;;;38.42;23.65;97781.56;4989049;28;20557;-76
2023/09/11 10:57:53;;;;;;;7.80;7.10;;;;;;;38.29;23.63;97783.91;4991519;28;20958;-76
2023/09/11 11:00:22;;;;;;;7.13;6.53;;;;;;;37.86;24.60;97777.81;4992165;28;20470;-73
2023/09/11 11:02:50;;;;;;;7.70;5.80;;;;;;;38.27;23.87;97783.50;4988196;28;20480;-76
2023/09/11 11:05:17;;;;;;;6.63;5.90;;;;;;;38.40;24.32;97778.31;4989929;28;21010;-70
2023/09/11 11:07:44;;;;;;;7.03;6.60;;;;;;;38.69;23.17;97774.50;4991550;28;20490;-73
2023/09/11 11:10:12;;;;;;;7.30;5.90;;;;;;;38.19;24.25;97773.31;5002416;28;20449;-75
2023/09/11 11:12:40;;;;;;;7.87;6.30;;;;;;;38.80;22.95;97777.41;4994210;28;20478;-77
2023/09/11 11:15:23;;;;;;;7.60;6.30;;;;;;;39.26;21.88;97764.34;4993686;28;20981;-75
2023/09/11 11:18:06;;;;;;;8.93;5.97;;;;;;;39.04;22.25;97768.28;4994954;28;20477;-76
2023/09/11 11:20:34;;;;;;;6.53;5.93;;;;;;;38.57;22.82;97764.34;4990032;28;20524;-76
2023/09/11 11:23:08;;;;;;;8.17;6.10;;;;;;;38.71;22.17;97757.13;5008723;28;20465;-75
2023/09/11 11:25:36;;;;;;;6.70;6.10;;;;;;;38.79;22.78;97753.16;4997743;28;20559;-75